KSCF

South Marsh 268

South Marsh 268, Louisiana, USA
METAR KSCF 110235Z AUTO 33011G21KT 10SM CLR 12/03 A3030 RMK A01
Observed Flight Rules
Dec-11 @ 02:35 UTC (25 minutes ago) Visual Flight Rules
Wind Visibility Clouds
330° at 11 knots
 Gusting to 21 knots
10 miles
  • Clear skies
Temperatures Readings
Current 12°C / 54°F
Dewpoint 3°C / 37°F
Humidity 54%
Altimeter 30.3" Hg
Pressure 1026 hPa
Elevation 8
METAR KSCF 110235Z AUTO 33011G21KT 10SM CLR 12/03 A3030 RMK A01
Observed Flight Rules
Dec-11 @ 02:35 UTC
(25 minutes ago)
VFR
Wind Visibility
330° at 11 knots
 Gusting to 21 knots
10 miles
Clouds
  • Clear skies
Temperature Dewpoint
12°C / 54°F 3°C / 37°F
Humidity Altimeter Pressure
54% 30.3" Hg 1026 hPa